createdAt,value
2018-05-07T00:01:19.947Z,63.00
2018-05-07T00:03:47.431Z,63.00
2018-05-07T00:06:15.010Z,63.20
2018-05-07T00:08:42.477Z,63.30
2018-05-07T00:11:10.770Z,63.00
2018-05-07T00:13:39.125Z,63.40
2018-05-07T00:16:07.651Z,64.20
2018-05-07T00:18:35.140Z,64.10
2018-05-07T00:21:03.403Z,64.40
2018-05-07T00:23:30.916Z,64.40
2018-05-07T00:25:59.167Z,65.50
2018-05-07T00:28:26.879Z,65.50
2018-05-07T00:30:54.375Z,65.60
2018-05-07T00:33:21.851Z,65.50
2018-05-07T00:35:50.112Z,67.00
2018-05-07T00:38:17.589Z,67.00
2018-05-07T00:40:45.883Z,67.00
2018-05-07T00:43:13.365Z,67.00
2018-05-07T00:45:40.855Z,65.40
2018-05-07T00:48:08.332Z,65.10
2018-05-07T00:50:36.591Z,64.30
2018-05-07T00:53:05.817Z,64.70
2018-05-07T00:55:34.122Z,64.90
2018-05-07T00:58:02.607Z,65.30
2018-05-07T01:00:30.099Z,65.20
2018-05-07T01:02:59.089Z,66.60
2018-05-07T01:05:26.578Z,66.50
2018-05-07T01:07:54.852Z,67.40
2018-05-07T01:10:23.372Z,67.50
2018-05-07T01:12:51.922Z,67.30
2018-05-07T01:15:20.440Z,66.90
2018-05-07T01:17:47.951Z,66.90
2018-05-07T01:20:16.207Z,67.00
2018-05-07T01:22:43.790Z,67.00
2018-05-07T01:25:12.312Z,66.60
2018-05-07T01:27:39.816Z,66.50
2018-05-07T01:30:08.797Z,66.60
2018-05-07T01:32:37.276Z,66.70
2018-05-07T01:35:06.540Z,66.70
2018-05-07T01:37:34.031Z,66.70
2018-05-07T01:40:01.510Z,67.00
2018-05-07T01:42:30.040Z,67.10
2018-05-07T01:44:57.524Z,67.00
2018-05-07T01:47:25.017Z,67.10
2018-05-07T01:49:53.272Z,68.60
2018-05-07T01:52:20.754Z,68.60
2018-05-07T01:54:49.008Z,69.40
2018-05-07T01:57:16.831Z,69.40
2018-05-07T01:59:44.587Z,70.10
2018-05-07T02:02:12.060Z,70.90
2018-05-07T02:04:39.531Z,70.90
2018-05-07T02:07:07.268Z,71.00
2018-05-07T02:09:34.744Z,71.00
2018-05-07T02:12:02.236Z,71.40
2018-05-07T02:14:30.515Z,73.10
2018-05-07T02:16:59.039Z,72.70
2018-05-07T02:19:26.519Z,72.70
2018-05-07T02:21:54.012Z,71.60
2018-05-07T02:24:22.268Z,74.40
2018-05-07T02:26:49.744Z,74.40
2018-05-07T02:29:17.996Z,74.40
2018-05-07T02:31:45.479Z,74.30
2018-05-07T02:34:13.716Z,74.70
2018-05-07T02:36:41.203Z,74.70
2018-05-07T02:39:08.772Z,75.00
2018-05-07T02:41:37.292Z,74.50
2018-05-07T02:44:04.768Z,74.50
2018-05-07T02:46:32.258Z,74.50
2018-05-07T02:48:59.733Z,74.30
2018-05-07T02:51:27.992Z,73.90
2018-05-07T02:53:56.231Z,74.90
2018-05-07T02:56:23.704Z,74.30
2018-05-07T02:58:51.437Z,74.70
2018-05-07T03:01:19.203Z,74.70
2018-05-07T03:03:46.695Z,74.60
2018-05-07T03:06:14.520Z,74.60
2018-05-07T03:08:42.032Z,74.70
2018-05-07T03:11:09.510Z,75.20
2018-05-07T03:13:37.300Z,75.40
2018-05-07T03:16:04.832Z,75.50
2018-05-07T03:18:33.072Z,76.40
2018-05-07T03:21:01.367Z,77.40
2018-05-07T03:23:29.612Z,77.40
2018-05-07T03:25:57.107Z,77.30
2018-05-07T03:28:25.376Z,78.50
2018-05-07T03:30:52.875Z,78.40
2018-05-07T03:33:20.639Z,79.10
2018-05-07T03:35:48.156Z,80.30
2018-05-07T03:38:16.411Z,79.30
2018-05-07T03:40:44.960Z,81.10
2018-05-07T03:43:13.385Z,81.10
2018-05-07T03:45:41.937Z,84.20
2018-05-07T03:48:09.380Z,83.60
2018-05-07T03:50:36.872Z,86.60
2018-05-07T03:53:04.347Z,85.90
2018-05-07T03:55:32.604Z,87.30
2018-05-07T03:58:00.077Z,87.20
2018-05-07T04:00:28.359Z,87.00
2018-05-07T04:02:56.599Z,85.80
2018-05-07T04:05:24.079Z,85.80
2018-05-07T04:07:51.646Z,90.30
2018-05-07T04:10:19.930Z,91.30
2018-05-07T04:12:48.188Z,90.00
2018-05-07T04:15:15.660Z,89.90
2018-05-07T04:17:55.799Z,91.80
2018-05-07T04:20:35.496Z,91.00
2018-05-07T04:23:14.891Z,91.10
2018-05-07T04:25:43.133Z,91.40
2018-05-07T04:28:10.609Z,91.50
2018-05-07T04:30:38.183Z,93.50
2018-05-07T04:33:06.709Z,96.60
2018-05-07T04:35:34.571Z,96.50
2018-05-07T04:38:02.044Z,93.80
2018-05-07T04:40:29.514Z,93.00
2018-05-07T04:42:57.255Z,92.90
2018-05-07T04:45:24.728Z,92.10
2018-05-07T04:47:52.231Z,93.70
2018-05-07T04:50:20.746Z,93.10
2018-05-07T04:52:48.510Z,93.10
2018-05-07T04:55:16.271Z,95.00
2018-05-07T04:57:43.743Z,93.20
2018-05-07T05:00:11.244Z,87.20
2018-05-07T05:02:39.708Z,83.70
2018-05-07T05:05:07.532Z,83.60
2018-05-07T05:07:35.052Z,79.00
2018-05-07T05:10:03.316Z,77.20
2018-05-07T05:12:31.558Z,76.10
2018-05-07T05:14:59.032Z,76.30
2018-05-07T05:17:26.528Z,76.70
2018-05-07T05:19:54.764Z,69.80
2018-05-07T05:22:22.259Z,69.70
2018-05-07T05:24:50.771Z,69.40
2018-05-07T05:27:18.303Z,69.30
2018-05-07T05:29:45.849Z,67.70
2018-05-07T05:32:14.087Z,66.70
2018-05-07T05:34:41.576Z,66.50
2018-05-07T05:37:10.128Z,67.90
2018-05-07T05:39:37.616Z,67.60
2018-05-07T05:42:05.868Z,65.90
2018-05-07T05:44:33.359Z,65.70
2018-05-07T05:47:01.608Z,64.50
2018-05-07T05:49:29.079Z,64.50
2018-05-07T05:51:57.343Z,64.90
2018-05-07T05:54:24.929Z,64.80
2018-05-07T05:56:53.184Z,65.90
2018-05-07T05:59:20.875Z,66.00
2018-05-07T06:01:48.372Z,65.30
2018-05-07T06:04:15.871Z,66.80
2018-05-07T06:06:44.132Z,65.10
2018-05-07T06:09:11.606Z,65.00
2018-05-07T06:11:39.873Z,67.70
2018-05-07T06:14:07.347Z,67.60
2018-05-07T06:16:35.611Z,66.70
2018-05-07T06:19:03.889Z,64.90
2018-05-07T06:21:32.516Z,66.60
2018-05-07T06:23:59.987Z,67.30
2018-05-07T06:26:27.489Z,66.50
2018-05-07T06:28:55.732Z,64.50
2018-05-07T06:31:23.223Z,64.50
2018-05-07T06:33:51.743Z,64.50
2018-05-07T06:36:19.257Z,64.50
2018-05-07T06:38:47.783Z,64.00
2018-05-07T06:41:15.292Z,64.00
2018-05-07T06:43:43.540Z,61.30
2018-05-07T06:46:11.032Z,61.20
2018-05-07T06:48:38.524Z,64.70
2018-05-07T06:51:06.295Z,61.00
2018-05-07T06:53:33.773Z,61.30
2018-05-07T06:56:01.264Z,57.10
2018-05-07T06:58:29.511Z,57.80
2018-05-07T07:00:57.075Z,57.90
2018-05-07T07:03:25.256Z,56.90
2018-05-07T07:05:52.743Z,56.90
2018-05-07T07:08:21.390Z,57.80
2018-05-07T07:10:48.772Z,57.80
2018-05-07T07:13:17.296Z,58.10
2018-05-07T07:15:44.787Z,58.10
2018-05-07T07:18:12.260Z,57.50
2018-05-07T07:20:39.758Z,57.40
2018-05-07T07:23:07.231Z,56.00
2018-05-07T07:25:34.741Z,56.60
2018-05-07T07:28:03.017Z,55.60
2018-05-07T07:30:30.571Z,55.50
2018-05-07T07:32:58.822Z,56.00
2018-05-07T07:35:26.312Z,56.10
2018-05-07T07:37:54.552Z,55.50
2018-05-07T07:40:22.047Z,55.40
2018-05-07T07:42:50.287Z,56.00
2018-05-07T07:45:18.020Z,56.00
2018-05-07T07:47:45.783Z,58.70
2018-05-07T07:50:13.271Z,56.40
2018-05-07T07:52:41.005Z,55.10
2018-05-07T07:55:08.768Z,56.50
2018-05-07T07:57:36.243Z,57.00
2018-05-07T08:00:03.992Z,57.50
2018-05-07T08:02:31.481Z,57.30
2018-05-07T08:04:59.064Z,56.20
2018-05-07T08:07:27.316Z,57.50
2018-05-07T08:09:54.813Z,57.40
2018-05-07T08:12:22.455Z,56.10
2018-05-07T08:14:49.796Z,58.30
2018-05-07T08:17:18.335Z,56.90
2018-05-07T08:19:45.816Z,57.00
2018-05-07T08:22:13.678Z,57.70
2018-05-07T08:24:41.222Z,58.80
2018-05-07T08:27:08.983Z,57.50
2018-05-07T08:29:36.497Z,55.60
2018-05-07T08:32:04.771Z,54.90
2018-05-07T08:34:33.008Z,56.80
2018-05-07T08:37:00.503Z,56.80
2018-05-07T08:39:28.783Z,54.60
2018-05-07T08:41:57.059Z,53.10
2018-05-07T08:44:25.584Z,54.80
2018-05-07T08:46:53.075Z,54.80
2018-05-07T08:49:20.559Z,55.50
2018-05-07T08:51:49.080Z,55.00
2018-05-07T08:54:17.453Z,55.00
2018-05-07T08:56:45.708Z,53.00
2018-05-07T08:59:13.180Z,53.00
2018-05-07T09:01:40.952Z,54.50
2018-05-07T09:04:08.716Z,54.50
2018-05-07T09:06:36.211Z,53.20
2018-05-07T09:09:03.907Z,56.30
2018-05-07T09:11:32.159Z,53.70
2018-05-07T09:13:59.656Z,53.80
2018-05-07T09:16:27.476Z,53.80
2018-05-07T09:18:54.921Z,53.80
2018-05-07T09:21:22.411Z,53.40
2018-05-07T09:23:50.656Z,53.20
2018-05-07T09:26:18.147Z,53.20
2018-05-07T09:28:46.384Z,53.60
2018-05-07T09:31:13.961Z,53.60
2018-05-07T09:33:41.436Z,52.60
2018-05-07T09:36:09.691Z,54.40
2018-05-07T09:38:37.171Z,54.40
2018-05-07T09:41:05.428Z,51.80
2018-05-07T09:43:32.907Z,51.90
2018-05-07T09:46:01.580Z,51.10
2018-05-07T09:48:29.856Z,49.00
2018-05-07T09:50:58.116Z,52.40
2018-05-07T09:53:25.588Z,52.20
2018-05-07T09:55:53.840Z,51.70
2018-05-07T09:58:21.388Z,51.70
2018-05-07T10:00:48.876Z,51.20
2018-05-07T10:03:17.120Z,50.30
2018-05-07T10:05:44.712Z,49.70
2018-05-07T10:08:13.240Z,51.10
2018-05-07T10:10:41.004Z,50.50
2018-05-07T10:13:08.520Z,49.90
2018-05-07T10:15:36.764Z,48.00
2018-05-07T10:18:04.355Z,48.00
2018-05-07T10:20:32.595Z,48.10
2018-05-07T10:23:00.067Z,48.00
2018-05-07T10:25:27.643Z,51.50
2018-05-07T10:27:55.888Z,47.70
2018-05-07T10:30:23.624Z,47.70
2018-05-07T10:32:51.100Z,45.80
2018-05-07T10:35:18.578Z,48.00
2018-05-07T10:37:46.412Z,45.70
2018-05-07T10:40:13.887Z,46.90
2018-05-07T10:42:41.387Z,47.50
2018-05-07T10:45:08.868Z,46.30
2018-05-07T10:47:36.339Z,46.50
2018-05-07T10:50:04.055Z,48.10
2018-05-07T10:52:32.335Z,45.40
2018-05-07T10:55:00.595Z,47.10
2018-05-07T10:57:28.161Z,47.00
2018-05-07T10:59:56.405Z,49.00
2018-05-07T11:02:23.904Z,49.10
2018-05-07T11:04:52.150Z,47.40
2018-05-07T11:07:19.652Z,47.40
2018-05-07T11:09:47.435Z,47.40
2018-05-07T11:12:14.907Z,49.20
2018-05-07T11:14:42.395Z,47.90
2018-05-07T11:17:09.871Z,46.40
2018-05-07T11:19:38.225Z,47.00
2018-05-07T11:22:06.663Z,48.10
2018-05-07T11:24:34.136Z,48.50
2018-05-07T11:27:01.630Z,45.30
2018-05-07T11:29:29.103Z,44.00
2018-05-07T11:31:57.472Z,47.10
2018-05-07T11:34:25.715Z,46.90
2018-05-07T11:36:53.188Z,46.80
2018-05-07T11:39:20.680Z,49.50
2018-05-07T11:41:48.225Z,47.90
2018-05-07T11:44:16.484Z,46.30
2018-05-07T11:46:43.963Z,46.30
2018-05-07T11:49:12.199Z,42.70
2018-05-07T11:51:39.692Z,42.60
2018-05-07T11:54:07.968Z,42.40
2018-05-07T11:56:36.227Z,40.80
2018-05-07T11:59:03.704Z,40.80
2018-05-07T12:01:31.947Z,42.90
2018-05-07T12:03:59.445Z,43.50
2018-05-07T12:06:26.988Z,41.20
2018-05-07T12:08:55.234Z,41.20
2018-05-07T12:11:22.728Z,41.10
2018-05-07T12:13:50.968Z,42.40
2018-05-07T12:16:18.552Z,42.40
2018-05-07T12:18:47.077Z,42.00
2018-05-07T12:21:14.556Z,41.90
2018-05-07T12:23:42.047Z,40.90
2018-05-07T12:26:10.324Z,42.50
2018-05-07T12:28:38.783Z,42.30
2018-05-07T12:31:06.271Z,42.30
2018-05-07T12:33:34.532Z,43.80
2018-05-07T12:36:03.063Z,42.50
2018-05-07T12:38:30.541Z,42.50
2018-05-07T12:40:58.036Z,43.50
2018-05-07T12:43:26.276Z,39.30
2018-05-07T12:45:53.747Z,39.30
2018-05-07T12:48:22.028Z,40.90
2018-05-07T12:50:49.508Z,40.90
2018-05-07T12:53:17.753Z,41.80
2018-05-07T12:55:45.248Z,41.80
2018-05-07T12:58:12.725Z,43.30
2018-05-07T13:00:40.247Z,43.90
2018-05-07T13:03:08.503Z,40.80
2018-05-07T13:05:35.979Z,40.70
2018-05-07T13:08:04.225Z,43.50
2018-05-07T13:10:31.720Z,43.60
2018-05-07T13:13:00.255Z,43.90
2018-05-07T13:15:27.723Z,44.00
2018-05-07T13:17:55.459Z,47.50
2018-05-07T13:20:23.042Z,48.40
2018-05-07T13:22:51.230Z,46.80
2018-05-07T13:25:18.720Z,46.80
2018-05-07T13:27:46.970Z,42.60
2018-05-07T13:30:14.443Z,42.50
2018-05-07T13:32:42.706Z,45.70
2018-05-07T13:35:10.948Z,44.70
2018-05-07T13:37:38.640Z,44.70
2018-05-07T13:40:06.144Z,43.80
2018-05-07T13:42:33.664Z,40.60
2018-05-07T13:45:01.908Z,45.20
2018-05-07T13:47:29.404Z,45.20
2018-05-07T13:49:57.923Z,44.00
2018-05-07T13:52:25.436Z,44.10
2018-05-07T13:54:53.700Z,43.40
2018-05-07T13:57:21.420Z,43.30
2018-05-07T13:59:48.900Z,43.20
2018-05-07T14:02:16.397Z,43.80
2018-05-07T14:04:44.637Z,46.20
2018-05-07T14:07:12.115Z,46.80
2018-05-07T14:09:40.380Z,44.90
2018-05-07T14:12:07.852Z,44.90
2018-05-07T14:14:36.163Z,44.90
2018-05-07T14:17:03.604Z,44.90
2018-05-07T14:19:31.396Z,45.70
2018-05-07T14:21:59.160Z,45.20
2018-05-07T14:24:26.655Z,44.90
2018-05-07T14:26:54.132Z,45.30
2018-05-07T14:29:22.379Z,43.50
2018-05-07T14:31:49.874Z,43.50
2018-05-07T14:34:18.125Z,45.00
2018-05-07T14:36:45.695Z,44.90
2018-05-07T14:39:14.223Z,44.70
2018-05-07T14:41:41.712Z,44.70
2018-05-07T14:44:09.543Z,43.70
2018-05-07T14:46:37.032Z,42.40
2018-05-07T14:49:04.512Z,43.40
2018-05-07T14:51:32.020Z,44.60
2018-05-07T14:53:59.532Z,44.60
2018-05-07T14:56:27.775Z,44.40
2018-05-07T14:58:55.248Z,44.40
2018-05-07T15:01:23.517Z,44.30
2018-05-07T15:03:51.005Z,44.40
2018-05-07T15:06:19.248Z,44.50
2018-05-07T15:08:47.508Z,44.50
2018-05-07T15:11:14.984Z,44.60
2018-05-07T15:13:42.469Z,44.30
2018-05-07T15:16:10.989Z,43.50
2018-05-07T15:18:38.467Z,43.50
2018-05-07T15:21:05.948Z,44.20
2018-05-07T15:23:33.443Z,43.00
2018-05-07T15:26:00.915Z,45.00
2018-05-07T15:28:28.393Z,43.90
2018-05-07T15:30:55.893Z,44.30
2018-05-07T15:33:24.135Z,43.00
2018-05-07T15:35:52.392Z,43.80
2018-05-07T15:38:19.895Z,43.70
2018-05-07T15:40:48.141Z,44.30
2018-05-07T15:43:15.731Z,44.20
2018-05-07T15:45:43.995Z,44.30
2018-05-07T15:48:11.470Z,44.30
2018-05-07T15:50:39.987Z,45.20
2018-05-07T15:53:07.541Z,45.20
2018-05-07T15:55:35.030Z,44.70
2018-05-07T15:58:02.532Z,45.50
2018-05-07T16:00:30.797Z,45.20
2018-05-07T16:02:59.152Z,45.50
2018-05-07T16:05:26.628Z,45.40
2018-05-07T16:07:54.936Z,46.20
2018-05-07T16:10:22.711Z,46.20
2018-05-07T16:12:50.240Z,45.50
2018-05-07T16:15:17.857Z,43.60
2018-05-07T16:17:45.343Z,45.60
2018-05-07T16:20:13.620Z,44.10
2018-05-07T16:22:41.887Z,44.50
2018-05-07T16:25:09.372Z,44.50
2018-05-07T16:27:36.848Z,44.10
2018-05-07T16:30:04.341Z,42.30
2018-05-07T16:32:31.833Z,43.60
2018-05-07T16:35:00.080Z,42.80
2018-05-07T16:37:27.579Z,42.80
2018-05-07T16:39:55.081Z,43.70
2018-05-07T16:42:24.092Z,43.80
2018-05-07T16:44:51.584Z,43.80
2018-05-07T16:47:19.076Z,43.80
2018-05-07T16:49:46.583Z,43.60
2018-05-07T16:52:14.824Z,42.50
2018-05-07T16:54:42.463Z,42.40
2018-05-07T16:57:09.973Z,43.50
2018-05-07T16:59:38.238Z,43.90
2018-05-07T17:02:07.448Z,42.40
2018-05-07T17:04:35.716Z,41.20
2018-05-07T17:07:04.252Z,41.90
2018-05-07T17:09:31.751Z,41.90
2018-05-07T17:11:59.227Z,41.30
2018-05-07T17:14:27.479Z,42.40
2018-05-07T17:16:54.979Z,42.40
2018-05-07T17:19:22.467Z,42.60
2018-05-07T17:21:49.949Z,43.10
2018-05-07T17:24:17.803Z,43.40
2018-05-07T17:26:45.268Z,42.60
2018-05-07T17:29:12.996Z,43.10
2018-05-07T17:31:40.476Z,43.60
2018-05-07T17:34:08.119Z,43.40
2018-05-07T17:36:35.647Z,43.80
2018-05-07T17:39:03.143Z,44.20
2018-05-07T17:41:30.619Z,45.40
2018-05-07T17:44:10.815Z,44.70
2018-05-07T18:00:08.802Z,46.30
2018-05-07T18:02:36.566Z,46.20
2018-05-07T18:05:04.084Z,46.30
2018-05-07T18:07:32.335Z,45.80
2018-05-07T18:10:00.059Z,45.80
2018-05-07T18:12:27.547Z,45.70
2018-05-07T18:14:55.052Z,46.10
2018-05-07T18:17:22.843Z,46.60
2018-05-07T18:19:50.355Z,46.80
2018-05-07T18:22:17.839Z,46.50
2018-05-07T18:24:45.339Z,46.50
2018-05-07T18:27:12.815Z,46.90
2018-05-07T18:29:40.308Z,47.10
2018-05-07T18:32:07.785Z,47.60
2018-05-07T18:34:35.284Z,47.90
2018-05-07T18:37:02.760Z,48.40
2018-05-07T18:39:31.208Z,49.40
2018-05-07T18:41:58.684Z,49.40
2018-05-07T18:44:26.274Z,50.50
2018-05-07T18:46:53.755Z,50.10
2018-05-07T18:49:21.244Z,50.70
2018-05-07T18:51:50.233Z,53.10
2018-05-07T18:54:17.734Z,53.10
2018-05-07T18:56:45.524Z,55.00
2018-05-07T18:59:13.031Z,55.60
2018-05-07T19:01:40.508Z,56.00
2018-05-07T19:04:08.769Z,56.60
2018-05-07T19:06:37.015Z,58.40
2018-05-07T19:09:04.603Z,58.40
2018-05-07T19:11:33.132Z,61.20
2018-05-07T19:14:00.628Z,60.90
2018-05-07T19:16:28.243Z,62.00
2018-05-07T19:18:55.768Z,63.10
2018-05-07T19:21:24.037Z,60.60
2018-05-07T19:23:52.297Z,60.20
2018-05-07T19:26:19.772Z,60.20
2018-05-07T19:28:48.296Z,62.70
2018-05-07T19:31:15.930Z,62.60
2018-05-07T19:33:43.428Z,63.70
2018-05-07T19:36:10.912Z,64.50
2018-05-07T19:38:38.532Z,65.50
2018-05-07T19:41:06.086Z,63.40
2018-05-07T19:43:33.585Z,63.50
2018-05-07T19:46:01.060Z,61.80
2018-05-07T19:48:28.626Z,62.50
2018-05-07T19:50:56.056Z,63.40
2018-05-07T19:53:25.259Z,68.70
2018-05-07T19:55:52.799Z,68.60
2018-05-07T19:58:20.330Z,68.80
2018-05-07T20:00:47.889Z,67.30
2018-05-07T20:03:15.370Z,67.60
2018-05-07T20:05:43.115Z,70.80
2018-05-07T20:08:10.632Z,70.80
2018-05-07T20:10:39.156Z,76.20
2018-05-07T20:13:06.637Z,76.30
2018-05-07T20:15:34.140Z,78.60
2018-05-07T20:18:02.388Z,83.80
2018-05-07T20:20:29.880Z,83.90
2018-05-07T20:22:57.355Z,87.10
2018-05-07T20:25:25.124Z,88.20
2018-05-07T20:27:52.641Z,90.10
2018-05-07T20:30:20.952Z,91.00
2018-05-07T20:32:48.719Z,91.00
2018-05-07T20:35:16.212Z,91.30
2018-05-07T20:37:44.456Z,93.90
2018-05-07T20:40:12.224Z,93.70
2018-05-07T20:42:39.731Z,93.50
2018-05-07T20:45:08.487Z,95.60
2018-05-07T20:47:35.959Z,95.60
2018-05-07T20:50:03.533Z,97.30
2018-05-07T20:52:31.779Z,97.90
2018-05-07T20:54:59.368Z,97.90
2018-05-07T20:57:27.627Z,98.50
2018-05-07T20:59:55.156Z,98.50
2018-05-07T21:02:22.631Z,98.90
2018-05-07T21:04:50.126Z,99.90
2018-05-07T21:07:18.644Z,99.90
2018-05-07T21:09:46.214Z,99.90
2018-05-07T21:12:13.660Z,99.90
2018-05-07T21:14:41.424Z,99.90
2018-05-07T21:17:08.896Z,99.90
2018-05-07T21:19:36.393Z,99.90
2018-05-07T21:22:04.709Z,99.90
2018-05-07T21:24:32.203Z,99.90
2018-05-07T21:27:01.184Z,99.90
2018-05-07T21:29:28.675Z,99.90
2018-05-07T21:31:56.927Z,99.90
2018-05-07T21:34:24.420Z,99.90
2018-05-07T21:36:52.667Z,99.90
2018-05-07T21:39:20.160Z,99.90
2018-05-07T21:41:47.644Z,99.90
2018-05-07T21:44:15.352Z,99.90
2018-05-07T21:46:42.836Z,99.90
2018-05-07T21:49:11.088Z,99.90
2018-05-07T21:51:38.659Z,99.90
2018-05-07T21:54:06.914Z,99.90
2018-05-07T21:56:34.403Z,99.90
2018-05-07T21:59:02.201Z,99.90
2018-05-07T22:01:29.692Z,99.90
2018-05-07T22:03:58.236Z,99.90
2018-05-07T22:06:25.999Z,99.90
2018-05-07T22:08:53.471Z,99.90
2018-05-07T22:11:20.968Z,99.90
2018-05-07T22:13:49.211Z,99.90
2018-05-07T22:16:16.806Z,99.90
2018-05-07T22:18:45.331Z,99.90
2018-05-07T22:21:12.827Z,99.90
2018-05-07T22:23:40.428Z,99.90
2018-05-07T22:26:07.968Z,99.90
2018-05-07T22:28:35.436Z,99.90
2018-05-07T22:31:03.687Z,99.90
2018-05-07T22:33:31.159Z,99.90
2018-05-07T22:35:59.418Z,99.90
2018-05-07T22:38:27.237Z,99.90
2018-05-07T22:40:54.748Z,99.90
2018-05-07T22:43:22.994Z,99.90
2018-05-07T22:45:50.483Z,99.90
2018-05-07T22:48:18.723Z,99.90
2018-05-07T22:50:46.212Z,99.90
2018-05-07T22:53:13.687Z,99.90
2018-05-07T22:55:41.228Z,99.90
2018-05-07T22:58:09.465Z,99.90
2018-05-07T23:00:36.952Z,99.90
2018-05-07T23:03:04.667Z,99.90
2018-05-07T23:05:32.159Z,99.90
2018-05-07T23:07:59.887Z,99.90
2018-05-07T23:10:27.403Z,99.90
2018-05-07T23:12:55.852Z,99.90
2018-05-07T23:15:23.352Z,99.90
2018-05-07T23:17:51.595Z,99.90
2018-05-07T23:20:19.847Z,99.90
2018-05-07T23:22:47.315Z,99.90
2018-05-07T23:25:14.908Z,99.90
2018-05-07T23:27:43.184Z,99.90
2018-05-07T23:30:11.441Z,99.90
2018-05-07T23:32:40.843Z,99.90
2018-05-07T23:35:08.423Z,99.90
2018-05-07T23:37:36.700Z,99.90
2018-05-07T23:40:04.963Z,99.80
2018-05-07T23:42:32.528Z,99.80
2018-05-07T23:45:00.019Z,99.10
2018-05-07T23:47:27.796Z,98.40
2018-05-07T23:49:55.311Z,98.00
2018-05-07T23:52:23.836Z,96.70
2018-05-07T23:54:51.347Z,96.70
2018-05-07T23:57:18.923Z,96.20
2018-05-07T23:59:47.180Z,95.40
